createdAt,value
2019-05-01T00:00:59.200Z,100681.20
2019-05-01T00:03:34.017Z,100673.58
2019-05-01T00:06:10.886Z,100667.88
2019-05-01T00:08:42.530Z,100665.29
2019-05-01T00:11:14.429Z,100667.88
2019-05-01T00:13:46.332Z,100671.88
2019-05-01T00:16:18.548Z,100662.55
2019-05-01T00:18:50.175Z,100656.82
2019-05-01T00:21:21.911Z,100657.22
2019-05-01T00:23:54.508Z,100658.73
2019-05-01T00:26:26.032Z,100653.14
2019-05-01T00:28:58.737Z,100652.12
2019-05-01T00:31:30.459Z,100647.45
2019-05-01T00:34:02.300Z,100638.98
2019-05-01T00:36:35.306Z,100636.53
2019-05-01T00:39:09.645Z,100635.41
2019-05-01T00:41:41.841Z,100635.05
2019-05-01T00:44:13.564Z,100632.77
2019-05-01T00:46:45.392Z,100642.12
2019-05-01T00:49:17.120Z,100635.28
2019-05-01T00:51:48.850Z,100649.38
2019-05-01T00:54:20.690Z,100647.50
2019-05-01T00:57:00.186Z,100644.27
2019-05-01T00:59:36.162Z,100634.09
2019-05-01T01:02:12.381Z,100635.91
2019-05-01T01:04:43.915Z,100641.60
2019-05-01T01:07:15.737Z,100636.75
2019-05-01T01:09:47.463Z,100634.58
2019-05-01T01:12:19.949Z,100623.08
2019-05-01T01:14:51.573Z,100620.89
2019-05-01T01:17:23.374Z,100630.69
2019-05-01T01:19:55.103Z,100626.80
2019-05-01T01:22:29.988Z,100622.42
2019-05-01T01:25:02.355Z,100615.95
2019-05-01T01:27:35.293Z,100619.02
2019-05-01T01:30:08.924Z,100622.64
2019-05-01T01:32:40.815Z,100610.33
2019-05-01T01:35:12.685Z,100609.57
2019-05-01T01:37:44.210Z,100609.77
2019-05-01T01:40:16.001Z,100616.13
2019-05-01T01:42:49.721Z,100611.86
2019-05-01T01:45:22.990Z,100601.03
2019-05-01T01:48:12.043Z,100602.16
2019-05-01T01:50:46.160Z,100601.80
2019-05-01T01:53:20.666Z,100598.27
2019-05-01T01:55:52.551Z,100596.83
2019-05-01T01:58:25.915Z,100595.67
2019-05-01T02:01:11.390Z,100594.84
2019-05-01T02:03:44.822Z,100598.99
2019-05-01T02:06:16.682Z,100592.06
2019-05-01T02:08:56.212Z,100596.38
2019-05-01T02:11:23.469Z,100593.02
2019-05-01T02:13:58.512Z,100598.95
2019-05-01T02:16:30.340Z,100598.47
2019-05-01T02:19:02.071Z,100600.52
2019-05-01T02:21:33.803Z,100593.88
2019-05-01T02:24:06.008Z,100585.91
2019-05-01T02:26:40.380Z,100581.16
2019-05-01T02:29:17.085Z,100575.00
2019-05-01T02:31:52.438Z,100575.34
2019-05-01T02:34:26.815Z,100574.91
2019-05-01T02:37:02.675Z,100574.03
2019-05-01T02:39:36.437Z,100569.05
2019-05-01T02:42:10.138Z,100567.29
2019-05-01T02:44:50.631Z,100565.94
2019-05-01T02:47:26.669Z,100561.52
2019-05-01T02:50:09.167Z,100562.96
2019-05-01T02:52:43.531Z,100564.39
2019-05-01T02:55:23.077Z,100563.03
2019-05-01T02:57:55.644Z,100562.02
2019-05-01T03:00:27.712Z,100558.39
2019-05-01T03:03:00.692Z,100560.59
2019-05-01T03:05:32.414Z,100563.02
2019-05-01T03:08:04.377Z,100563.41
2019-05-01T03:10:36.543Z,100561.48
2019-05-01T03:13:08.912Z,100561.11
2019-05-01T03:15:40.984Z,100561.02
2019-05-01T03:18:14.566Z,100560.59
2019-05-01T03:20:50.013Z,100562.67
2019-05-01T03:23:39.686Z,100563.86
2019-05-01T03:26:12.019Z,100560.41
2019-05-01T03:28:44.079Z,100553.80
2019-05-01T03:31:16.936Z,100552.72
2019-05-01T03:33:49.122Z,100549.53
2019-05-01T03:36:20.739Z,100553.41
2019-05-01T03:38:53.035Z,100562.67
2019-05-01T03:41:24.827Z,100567.11
2019-05-01T03:43:57.764Z,100562.76
2019-05-01T03:46:29.562Z,100550.00
2019-05-01T03:49:01.751Z,100551.77
2019-05-01T03:51:33.852Z,100557.13
2019-05-01T03:54:07.271Z,100555.13
2019-05-01T03:56:39.369Z,100552.31
2019-05-01T03:59:10.992Z,100539.16
2019-05-01T04:01:56.647Z,100550.33
2019-05-01T04:04:31.855Z,100546.23
2019-05-01T04:07:03.913Z,100545.05
2019-05-01T04:09:37.165Z,100543.47
2019-05-01T04:12:09.159Z,100535.27
2019-05-01T04:14:41.525Z,100537.20
2019-05-01T04:17:15.172Z,100545.50
2019-05-01T04:19:47.173Z,100551.22
2019-05-01T04:22:19.068Z,100563.02
2019-05-01T04:24:51.641Z,100561.35
2019-05-01T04:27:25.351Z,100561.72
2019-05-01T04:30:04.976Z,100561.05
2019-05-01T04:32:52.209Z,100560.22
2019-05-01T04:35:25.503Z,100560.79
2019-05-01T04:37:57.841Z,100563.77
2019-05-01T04:40:29.635Z,100567.97
2019-05-01T04:43:01.255Z,100564.14
2019-05-01T04:45:33.618Z,100559.20
2019-05-01T04:48:05.675Z,100557.73
2019-05-01T04:50:37.573Z,100548.25
2019-05-01T04:53:09.372Z,100549.28
2019-05-01T04:55:41.015Z,100556.34
2019-05-01T04:58:13.079Z,100561.69
2019-05-01T05:00:44.956Z,100556.56
2019-05-01T05:03:18.231Z,100553.00
2019-05-01T05:05:49.945Z,100551.73
2019-05-01T05:08:21.575Z,100573.23
2019-05-01T05:10:55.589Z,100571.50
2019-05-01T05:13:29.326Z,100577.75
2019-05-01T05:16:08.656Z,100574.01
2019-05-01T05:18:40.299Z,100573.50
2019-05-01T05:21:13.739Z,100572.62
2019-05-01T05:23:46.302Z,100566.47
2019-05-01T05:26:18.212Z,100563.36
2019-05-01T05:28:51.695Z,100566.88
2019-05-01T05:31:26.859Z,100555.80
2019-05-01T05:34:01.303Z,100558.89
2019-05-01T05:36:36.389Z,100564.11
2019-05-01T05:39:26.080Z,100558.11
2019-05-01T05:41:59.057Z,100562.48
2019-05-01T05:44:30.786Z,100554.14
2019-05-01T05:47:02.882Z,100554.82
2019-05-01T05:49:34.891Z,100556.21
2019-05-01T05:52:10.669Z,100553.17
2019-05-01T05:54:45.571Z,100553.16
2019-05-01T05:57:30.194Z,100547.29
2019-05-01T06:00:20.191Z,100546.36
2019-05-01T06:02:55.653Z,100536.58
2019-05-01T06:05:34.975Z,100532.40
2019-05-01T06:08:11.307Z,100533.96
2019-05-01T06:10:53.550Z,100524.73
2019-05-01T06:13:44.667Z,100525.10
2019-05-01T06:16:25.169Z,100523.53
2019-05-01T06:19:09.635Z,100531.95
2019-05-01T06:21:43.584Z,100529.32
2019-05-01T06:24:20.295Z,100532.81
2019-05-01T06:26:52.093Z,100529.91
2019-05-01T06:29:24.084Z,100535.09
2019-05-01T06:31:58.815Z,100527.82
2019-05-01T06:34:29.822Z,100533.08
2019-05-01T06:37:03.637Z,100531.98
2019-05-01T06:39:35.681Z,100536.15
2019-05-01T06:42:09.754Z,100532.22
2019-05-01T06:45:01.588Z,100527.66
2019-05-01T06:47:38.334Z,100533.23
2019-05-01T06:50:17.454Z,100527.54
2019-05-01T06:52:50.149Z,100527.92
2019-05-01T11:45:17.486Z,100351.86
2019-05-01T11:47:49.322Z,100347.38
2019-05-01T11:50:22.208Z,100340.84
2019-05-01T11:53:02.653Z,100340.98
2019-05-01T11:55:35.985Z,100334.39
2019-05-01T11:58:10.912Z,100335.20
2019-05-01T12:00:45.094Z,100344.47
2019-05-01T12:03:16.793Z,100338.98
2019-05-01T12:05:48.566Z,100333.48
2019-05-01T12:08:24.184Z,100335.84
2019-05-01T12:10:56.076Z,100331.61
2019-05-01T12:13:27.809Z,100322.28
2019-05-01T12:16:07.094Z,100318.20
2019-05-01T12:18:38.663Z,100320.79
2019-05-01T12:21:10.425Z,100312.56
2019-05-01T12:23:42.322Z,100314.69
2019-05-01T12:26:15.452Z,100311.57
2019-05-01T12:28:47.198Z,100312.56
2019-05-01T12:31:18.959Z,100308.41
2019-05-01T12:33:50.721Z,100301.77
2019-05-01T12:36:35.152Z,100300.94
2019-05-01T12:49:51.665Z,100291.80
2019-05-01T12:52:46.464Z,100289.11
2019-05-01T12:55:35.075Z,100285.86
2019-05-01T12:58:18.219Z,100282.65
2019-05-01T13:00:53.177Z,100284.26
2019-05-01T13:03:25.568Z,100278.34
2019-05-01T13:05:59.672Z,100273.98
2019-05-01T13:08:32.079Z,100268.20
2019-05-01T13:11:05.198Z,100268.13
2019-05-01T13:13:40.508Z,100266.00
2019-05-01T13:16:23.546Z,100262.35
2019-05-01T13:18:58.376Z,100249.03
2019-05-01T13:21:30.346Z,100241.03
2019-05-01T13:24:04.143Z,100241.23
2019-05-01T13:26:40.551Z,100236.25
2019-05-01T13:29:19.209Z,100237.28
2019-05-01T13:31:58.076Z,100231.67
2019-05-01T13:34:32.427Z,100228.02
2019-05-01T13:37:06.360Z,100219.78
2019-05-01T13:39:39.981Z,100218.77
2019-05-01T13:42:27.225Z,100207.64
2019-05-01T13:45:00.928Z,100208.45
2019-05-01T13:47:36.322Z,100205.98
2019-05-01T13:50:12.248Z,100204.35
2019-05-01T13:52:46.845Z,100205.75
2019-05-01T13:55:18.786Z,100195.53
2019-05-01T13:57:50.541Z,100191.71
2019-05-01T14:00:23.700Z,100194.81
2019-05-01T14:02:55.745Z,100207.75
2019-05-01T14:05:27.785Z,100217.53
2019-05-01T14:07:59.614Z,100214.38
2019-05-01T14:10:34.126Z,100194.12
2019-05-01T14:13:09.494Z,100192.10
2019-05-01T14:15:41.152Z,100195.47
2019-05-01T14:18:17.972Z,100189.06
2019-05-01T14:20:53.905Z,100182.13
2019-05-01T14:23:44.810Z,100178.77
2019-05-01T14:26:18.366Z,100182.96
2019-05-01T14:28:51.472Z,100174.14
2019-05-01T14:31:23.106Z,100173.99
2019-05-01T14:34:01.068Z,100176.17
2019-05-01T14:36:28.487Z,100165.51
2019-05-01T14:39:00.722Z,100175.70
2019-05-01T14:41:34.467Z,100168.33
2019-05-01T14:44:06.754Z,100171.39
2019-05-01T14:46:38.311Z,100169.35
2019-05-01T14:49:10.164Z,100168.35
2019-05-01T14:51:41.993Z,100168.68
2019-05-01T14:54:13.848Z,100162.06
2019-05-01T14:56:45.590Z,100159.70
2019-05-01T14:59:17.358Z,100167.80
2019-05-01T15:01:49.113Z,100164.62
2019-05-01T15:04:20.818Z,100163.75
2019-05-01T15:06:52.576Z,100157.47
2019-05-01T15:09:24.449Z,100156.84
2019-05-01T15:11:56.096Z,100160.42
2019-05-01T15:14:29.638Z,100161.09
2019-05-01T15:17:09.932Z,100156.00
2019-05-01T15:19:46.467Z,100151.29
2019-05-01T15:22:21.814Z,100157.16
2019-05-01T15:24:53.536Z,100149.41
2019-05-01T15:27:25.373Z,100147.33
2019-05-01T15:30:07.636Z,100146.97
2019-05-01T15:32:43.712Z,100143.28
2019-05-01T15:35:17.241Z,100139.25
2019-05-01T15:37:56.584Z,100134.20
2019-05-01T15:40:31.736Z,100136.56
2019-05-01T15:43:17.134Z,100134.91
2019-05-01T15:45:59.348Z,100131.50
2019-05-01T15:48:37.913Z,100123.77
2019-05-01T15:51:12.362Z,100126.11
2019-05-01T15:53:44.393Z,100126.42
2019-05-01T15:56:16.210Z,100118.48
2019-05-01T15:58:50.024Z,100117.12
2019-05-01T16:01:23.084Z,100115.64
2019-05-01T16:03:59.713Z,100113.13
2019-05-01T16:06:31.755Z,100108.59
2019-05-01T16:09:07.560Z,100104.69
2019-05-01T16:11:57.482Z,100105.88
2019-05-01T16:14:32.386Z,100101.49
2019-05-01T16:17:05.082Z,100105.89
2019-05-01T16:19:37.305Z,100106.89
2019-05-01T16:22:09.259Z,100110.28
2019-05-01T16:24:49.541Z,100108.08
2019-05-01T16:27:22.611Z,100110.91
2019-05-01T16:30:06.035Z,100101.16
2019-05-01T16:32:40.805Z,100104.36
2019-05-01T16:35:13.003Z,100099.81
2019-05-01T16:37:50.113Z,100102.50
2019-05-01T16:40:35.551Z,100096.80
2019-05-01T16:43:09.660Z,100097.63
2019-05-01T16:45:41.429Z,100097.44
2019-05-01T16:48:13.074Z,100088.01
2019-05-01T16:50:45.911Z,100089.72
2019-05-01T16:53:18.115Z,100083.46
2019-05-01T16:55:49.990Z,100084.65
2019-05-01T16:58:23.225Z,100083.27
2019-05-01T17:01:03.055Z,100082.62
2019-05-01T17:03:52.911Z,100082.80
2019-05-01T17:06:45.253Z,100076.19
2019-05-01T17:09:36.838Z,100076.20
2019-05-01T17:12:12.887Z,100075.54
2019-05-01T17:14:46.174Z,100087.00
2019-05-01T17:17:20.363Z,100082.43
2019-05-01T17:19:56.740Z,100078.17
2019-05-01T17:22:29.626Z,100081.28
2019-05-01T17:25:02.142Z,100083.09
2019-05-01T17:27:35.082Z,100079.38
2019-05-01T17:30:10.458Z,100079.68
2019-05-01T17:32:44.273Z,100081.69
2019-05-01T17:35:15.985Z,100075.80
2019-05-01T17:37:47.640Z,100078.66
2019-05-01T17:40:21.141Z,100073.27
2019-05-01T17:42:54.570Z,100073.22
2019-05-01T17:45:29.786Z,100081.09
2019-05-01T17:48:03.380Z,100079.22
2019-05-01T17:50:37.884Z,100078.65
2019-05-01T17:53:09.758Z,100079.44
2019-05-01T17:55:41.918Z,100083.75
2019-05-01T17:58:14.284Z,100076.31
2019-05-01T18:01:05.016Z,100075.88
2019-05-01T18:03:46.066Z,100081.11
2019-05-01T18:06:22.963Z,100086.39
2019-05-01T18:09:03.247Z,100084.59
2019-05-01T18:11:31.311Z,100094.21
2019-05-01T18:14:05.577Z,100092.52
2019-05-01T18:16:37.113Z,100093.53
2019-05-01T18:19:10.753Z,100102.03
2019-05-01T18:21:46.803Z,100098.00
2019-05-01T18:24:39.026Z,100094.13
2019-05-01T18:27:27.719Z,100094.78
2019-05-01T18:30:06.244Z,100097.28
2019-05-01T18:32:46.466Z,100091.37
2019-05-01T18:35:16.084Z,100095.06
2019-05-01T18:37:51.639Z,100100.88
2019-05-01T18:40:28.059Z,100100.03
2019-05-01T18:43:00.417Z,100102.03
2019-05-01T18:45:45.451Z,100099.31
2019-05-01T18:48:18.439Z,100093.52
2019-05-01T18:50:54.967Z,100095.83
2019-05-01T18:53:28.469Z,100101.36
2019-05-01T18:56:05.578Z,100104.89
2019-05-01T18:58:36.838Z,100101.86
2019-05-01T19:01:09.194Z,100101.48
2019-05-01T19:03:44.083Z,100101.14
2019-05-01T19:06:17.490Z,100100.14
2019-05-01T19:08:50.668Z,100099.45
2019-05-01T19:11:22.989Z,100100.80
2019-05-01T19:14:00.400Z,100103.98
2019-05-01T19:16:39.948Z,100107.28
2019-05-01T19:19:13.786Z,100104.56
2019-05-01T19:21:48.513Z,100113.12
2019-05-01T19:24:26.485Z,100109.09
2019-05-01T19:26:59.995Z,100114.74
2019-05-01T19:29:33.728Z,100111.09
2019-05-01T19:32:08.302Z,100115.89
2019-05-01T19:34:40.995Z,100107.30
2019-05-01T19:37:16.508Z,100107.75
2019-05-01T19:39:53.679Z,100113.20
2019-05-01T19:42:24.512Z,100106.45
2019-05-01T19:44:57.731Z,100113.73
2019-05-01T19:47:31.877Z,100107.02
2019-05-01T19:50:09.708Z,100109.08
2019-05-01T19:52:43.176Z,100107.30
2019-05-01T19:55:14.998Z,100113.38
2019-05-01T19:57:46.859Z,100120.10
2019-05-01T20:00:24.996Z,100115.89
2019-05-01T20:02:59.068Z,100107.00
2019-05-01T20:05:32.504Z,100106.92
2019-05-01T20:08:04.484Z,100108.27
2019-05-01T20:10:37.450Z,100115.20
2019-05-01T20:13:13.318Z,100111.16
2019-05-01T20:15:46.765Z,100116.52
2019-05-01T20:18:19.526Z,100117.94
2019-05-01T20:20:52.841Z,100119.47
2019-05-01T20:23:31.420Z,100119.55
2019-05-01T20:26:03.431Z,100119.80
2019-05-01T20:28:37.398Z,100115.42
2019-05-01T20:31:17.927Z,100115.07
2019-05-01T20:33:55.417Z,100112.58
2019-05-01T20:36:29.470Z,100114.48
2019-05-01T20:39:07.421Z,100111.98
2019-05-01T20:41:41.953Z,100106.84
2019-05-01T20:44:18.717Z,100115.34
2019-05-01T20:46:47.280Z,100112.20
2019-05-01T20:49:20.161Z,100109.09
2019-05-01T20:51:52.028Z,100115.36
2019-05-01T20:54:27.607Z,100111.27
2019-05-01T20:57:07.206Z,100111.22
2019-05-01T20:59:42.080Z,100110.40
2019-05-01T21:02:15.009Z,100106.94
2019-05-01T21:04:54.560Z,100109.91
2019-05-01T21:07:29.520Z,100113.97
2019-05-01T21:10:05.531Z,100113.64
2019-05-01T21:12:37.353Z,100110.17
2019-05-01T21:15:09.577Z,100105.20
2019-05-01T21:17:44.188Z,100108.77
2019-05-01T21:20:14.800Z,100106.36
2019-05-01T21:22:46.548Z,100109.39
2019-05-01T21:25:18.284Z,100110.61
2019-05-01T21:27:50.044Z,100107.71
2019-05-01T21:30:23.733Z,100106.06
2019-05-01T21:32:59.069Z,100108.97
2019-05-01T21:35:29.615Z,100102.11
2019-05-01T21:38:02.379Z,100100.43
2019-05-01T21:40:40.633Z,100101.81
2019-05-01T21:43:08.388Z,100102.30
2019-05-01T21:45:40.034Z,100095.89
2019-05-01T21:48:13.412Z,100103.59
2019-05-01T21:50:45.143Z,100101.77
2019-05-01T21:53:16.809Z,100094.77
2019-05-01T21:55:48.676Z,100090.76
2019-05-01T21:58:21.113Z,100090.05
2019-05-01T22:00:55.111Z,100089.42
2019-05-01T22:03:27.879Z,100089.91
2019-05-01T22:05:59.513Z,100091.63
2019-05-01T22:08:34.429Z,100090.42
2019-05-01T22:11:05.383Z,100081.72
2019-05-01T22:13:43.298Z,100079.41
2019-05-01T22:16:24.165Z,100079.92
2019-05-01T22:19:00.717Z,100077.11
2019-05-01T22:21:43.111Z,100072.65
2019-05-01T22:24:32.295Z,100070.23
2019-05-01T22:27:05.776Z,100066.48
2019-05-01T22:29:42.082Z,100070.72
2019-05-01T22:32:31.859Z,100068.05
2019-05-01T22:35:08.748Z,100069.99
2019-05-01T22:37:41.290Z,100061.37
2019-05-01T22:40:15.471Z,100059.08
2019-05-01T22:42:47.262Z,100049.97
2019-05-01T22:45:24.100Z,100045.71
2019-05-01T22:47:55.947Z,100037.96
2019-05-01T22:50:28.624Z,100041.14
2019-05-01T22:53:00.385Z,100037.26
2019-05-01T22:55:33.366Z,100030.70
2019-05-01T22:58:05.181Z,100034.50
2019-05-01T23:00:41.496Z,100029.41
2019-05-01T23:03:15.527Z,100022.72
2019-05-01T23:05:47.281Z,100015.95
2019-05-01T23:08:18.931Z,100015.60
2019-05-01T23:10:50.746Z,100015.09
2019-05-01T23:13:23.659Z,100013.03
2019-05-01T23:15:56.177Z,100015.09
2019-05-01T23:18:29.947Z,100010.35
2019-05-01T23:21:01.690Z,100013.87
2019-05-01T23:23:33.506Z,100008.19
2019-05-01T23:26:05.250Z,100011.55
2019-05-01T23:28:39.742Z,100006.84
2019-05-01T23:31:10.528Z,100006.33
2019-05-01T23:33:45.697Z,100003.64
2019-05-01T23:36:23.298Z,99995.50
2019-05-01T23:38:49.239Z,100000.09
2019-05-01T23:41:24.847Z,99992.48
2019-05-01T23:43:58.154Z,99986.18
2019-05-01T23:46:29.832Z,99975.86
2019-05-01T23:49:01.203Z,99980.25
2019-05-01T23:51:34.478Z,99976.10
2019-05-01T23:54:06.213Z,99975.98
2019-05-01T23:56:37.947Z,99980.95
2019-05-01T23:59:09.777Z,99976.23
